Dixon Springs, Illinois
Current Conditions -  °F | °C
As of 8:55 AM on Monday 24 Nov 2014 (Local Time) from KM30 Reporting Station
Overcast Overcast  
Wind Chill: 39°   Ceiling: 3200
Heat Index: 45°   Visibility: 10mi
Dew Point: 37°   Wind: 13mph
Humidity: 72%   Direction: 250°WSW
Pressure: 29.7"   Gusts: NA
Location:  37.3798°N, 88.7652°W
Report Text: KM30 241455Z AUTO 25011KT 10SM OVC032 07/03 A2970 RMK AO2 T00730025
Loading
Personal Weather Stations






























Interactive Weather Map New forecast layout! Learn more

10-Day Weather Forecast

Advertisements
Track Severe Weather on mobile